Towner, Colorado
Current Conditions -  °F | °C
As of 5:53 AM on Saturday 25 Oct 2014 (Local Time) from KLAA Reporting Station
Clear Clear  
Wind Chill: 44°   Ceiling: Unl
Heat Index: 44°   Visibility: 10mi
Dew Point: 37°   Wind: 3mph
Humidity: 76%   Direction: 240°WSW
Pressure: 30.11"   Gusts: NA
Location:  38.4443°N, 102.221°W
Report Text: KLAA 251153Z AUTO 24003KT 10SM CLR 07/03 A3011 RMK AO2 SLP167 T00670028 10100 20050 53003
Loading
Personal Weather Stations






























Interactive Weather Map
Tropical Storm Tracking
New forecast layout! Learn more

10-Day Weather Forecast

Advertisements
Track Severe Weather on mobile